sensor_id;sensor_type;location;lat;lon;timestamp;temperature;humidity
19908;DHT22;10116;53.112;7.356;2023-05-29T00:01:14;25.40;56.70
19908;DHT22;10116;53.112;7.356;2023-05-29T00:03:46;25.40;56.80
19908;DHT22;10116;53.112;7.356;2023-05-29T00:06:13;25.40;56.50
19908;DHT22;10116;53.112;7.356;2023-05-29T00:08:39;25.40;58.20
19908;DHT22;10116;53.112;7.356;2023-05-29T00:11:04;25.40;56.30
19908;DHT22;10116;53.112;7.356;2023-05-29T00:13:30;25.40;55.90
19908;DHT22;10116;53.112;7.356;2023-05-29T00:15:56;25.40;55.90
19908;DHT22;10116;53.112;7.356;2023-05-29T00:18:21;25.40;56.70
19908;DHT22;10116;53.112;7.356;2023-05-29T00:20:47;25.40;56.30
19908;DHT22;10116;53.112;7.356;2023-05-29T00:23:13;25.40;56.10
19908;DHT22;10116;53.112;7.356;2023-05-29T00:25:39;25.40;56.10
19908;DHT22;10116;53.112;7.356;2023-05-29T00:28:07;25.40;55.80
19908;DHT22;10116;53.112;7.356;2023-05-29T00:30:32;25.40;56.20
19908;DHT22;10116;53.112;7.356;2023-05-29T00:32:58;25.40;56.20
19908;DHT22;10116;53.112;7.356;2023-05-29T00:35:24;25.40;56.10
19908;DHT22;10116;53.112;7.356;2023-05-29T00:37:49;25.40;56.20
19908;DHT22;10116;53.112;7.356;2023-05-29T00:40:15;25.40;55.80
19908;DHT22;10116;53.112;7.356;2023-05-29T00:42:41;25.40;56.30
19908;DHT22;10116;53.112;7.356;2023-05-29T00:45:07;25.40;56.10
19908;DHT22;10116;53.112;7.356;2023-05-29T00:47:33;25.40;55.70
19908;DHT22;10116;53.112;7.356;2023-05-29T00:49:59;25.40;55.80
19908;DHT22;10116;53.112;7.356;2023-05-29T00:52:25;25.40;55.80
19908;DHT22;10116;53.112;7.356;2023-05-29T00:54:52;25.40;55.70
19908;DHT22;10116;53.112;7.356;2023-05-29T00:57:18;25.40;55.70
19908;DHT22;10116;53.112;7.356;2023-05-29T00:59:44;25.40;55.30
19908;DHT22;10116;53.112;7.356;2023-05-29T01:02:11;25.40;56.10
19908;DHT22;10116;53.112;7.356;2023-05-29T01:04:37;25.40;55.70
19908;DHT22;10116;53.112;7.356;2023-05-29T01:07:03;25.40;56.10
19908;DHT22;10116;53.112;7.356;2023-05-29T01:09:30;25.40;55.50
19908;DHT22;10116;53.112;7.356;2023-05-29T01:26:44;25.40;55.60
19908;DHT22;10116;53.112;7.356;2023-05-29T01:29:14;25.40;54.60
19908;DHT22;10116;53.112;7.356;2023-05-29T01:31:42;25.30;54.10
19908;DHT22;10116;53.112;7.356;2023-05-29T01:34:07;25.40;54.20
19908;DHT22;10116;53.112;7.356;2023-05-29T01:36:33;25.30;54.50
19908;DHT22;10116;53.112;7.356;2023-05-29T01:39:00;25.40;54.40
19908;DHT22;10116;53.112;7.356;2023-05-29T01:41:26;25.30;54.20
19908;DHT22;10116;53.112;7.356;2023-05-29T01:43:52;25.40;53.90
19908;DHT22;10116;53.112;7.356;2023-05-29T01:46:20;25.30;54.20
19908;DHT22;10116;53.112;7.356;2023-05-29T01:48:46;25.30;54.90
19908;DHT22;10116;53.112;7.356;2023-05-29T01:51:12;25.30;53.90
19908;DHT22;10116;53.112;7.356;2023-05-29T01:53:39;25.30;54.20
19908;DHT22;10116;53.112;7.356;2023-05-29T01:56:05;25.30;53.90
19908;DHT22;10116;53.112;7.356;2023-05-29T01:58:32;25.30;54.00
19908;DHT22;10116;53.112;7.356;2023-05-29T02:01:00;25.30;53.60
19908;DHT22;10116;53.112;7.356;2023-05-29T02:03:26;25.40;53.40
19908;DHT22;10116;53.112;7.356;2023-05-29T02:05:55;25.30;53.40
19908;DHT22;10116;53.112;7.356;2023-05-29T02:08:21;25.30;53.40
19908;DHT22;10116;53.112;7.356;2023-05-29T02:10:47;25.30;53.10
19908;DHT22;10116;53.112;7.356;2023-05-29T02:13:12;25.30;54.50
19908;DHT22;10116;53.112;7.356;2023-05-29T02:15:38;25.30;53.30
19908;DHT22;10116;53.112;7.356;2023-05-29T02:18:03;25.30;53.90
19908;DHT22;10116;53.112;7.356;2023-05-29T02:20:29;25.30;53.90
19908;DHT22;10116;53.112;7.356;2023-05-29T02:22:55;25.30;52.90
19908;DHT22;10116;53.112;7.356;2023-05-29T02:25:20;25.30;52.40
19908;DHT22;10116;53.112;7.356;2023-05-29T02:27:46;25.30;52.40
19908;DHT22;10116;53.112;7.356;2023-05-29T02:30:12;25.30;52.60
19908;DHT22;10116;53.112;7.356;2023-05-29T02:32:37;25.30;52.70
19908;DHT22;10116;53.112;7.356;2023-05-29T02:35:03;25.30;52.30
19908;DHT22;10116;53.112;7.356;2023-05-29T02:37:29;25.30;52.10
19908;DHT22;10116;53.112;7.356;2023-05-29T02:39:55;25.30;53.50
19908;DHT22;10116;53.112;7.356;2023-05-29T02:42:20;25.30;52.10
19908;DHT22;10116;53.112;7.356;2023-05-29T02:44:46;25.30;52.50
19908;DHT22;10116;53.112;7.356;2023-05-29T02:47:12;25.30;52.10
19908;DHT22;10116;53.112;7.356;2023-05-29T02:49:38;25.30;52.40
19908;DHT22;10116;53.112;7.356;2023-05-29T02:52:03;25.30;51.90
19908;DHT22;10116;53.112;7.356;2023-05-29T02:54:29;25.30;51.80
19908;DHT22;10116;53.112;7.356;2023-05-29T02:56:54;25.30;52.10
19908;DHT22;10116;53.112;7.356;2023-05-29T02:59:21;25.40;52.70
19908;DHT22;10116;53.112;7.356;2023-05-29T03:01:46;25.30;65.20
19908;DHT22;10116;53.112;7.356;2023-05-29T03:04:13;25.30;51.80
19908;DHT22;10116;53.112;7.356;2023-05-29T03:06:39;25.30;52.20
19908;DHT22;10116;53.112;7.356;2023-05-29T03:09:05;25.40;51.60
19908;DHT22;10116;53.112;7.356;2023-05-29T03:11:31;25.30;51.60
19908;DHT22;10116;53.112;7.356;2023-05-29T03:13:58;25.30;51.70
19908;DHT22;10116;53.112;7.356;2023-05-29T03:16:24;25.30;51.60
19908;DHT22;10116;53.112;7.356;2023-05-29T03:18:50;25.30;51.60
19908;DHT22;10116;53.112;7.356;2023-05-29T03:21:16;25.30;51.50
19908;DHT22;10116;53.112;7.356;2023-05-29T03:23:42;25.30;51.80
19908;DHT22;10116;53.112;7.356;2023-05-29T03:26:08;25.30;51.60
19908;DHT22;10116;53.112;7.356;2023-05-29T03:28:33;25.40;52.60
19908;DHT22;10116;53.112;7.356;2023-05-29T03:30:59;25.40;51.80
19908;DHT22;10116;53.112;7.356;2023-05-29T03:33:25;25.40;52.80
19908;DHT22;10116;53.112;7.356;2023-05-29T03:35:51;25.40;53.40
19908;DHT22;10116;53.112;7.356;2023-05-29T03:38:17;25.50;53.90
19908;DHT22;10116;53.112;7.356;2023-05-29T03:40:42;25.50;54.50
19908;DHT22;10116;53.112;7.356;2023-05-29T03:43:08;25.60;54.60
19908;DHT22;10116;53.112;7.356;2023-05-29T03:45:33;25.60;54.60
19908;DHT22;10116;53.112;7.356;2023-05-29T03:47:59;25.60;54.70
19908;DHT22;10116;53.112;7.356;2023-05-29T03:50:24;25.60;54.50
19908;DHT22;10116;53.112;7.356;2023-05-29T03:52:50;25.70;55.10
19908;DHT22;10116;53.112;7.356;2023-05-29T03:55:16;25.70;54.90
19908;DHT22;10116;53.112;7.356;2023-05-29T03:57:42;25.70;55.00
19908;DHT22;10116;53.112;7.356;2023-05-29T04:00:08;25.70;55.40
19908;DHT22;10116;53.112;7.356;2023-05-29T04:02:38;25.70;54.90
19908;DHT22;10116;53.112;7.356;2023-05-29T04:05:07;25.70;54.50
19908;DHT22;10116;53.112;7.356;2023-05-29T04:07:37;25.70;55.70
19908;DHT22;10116;53.112;7.356;2023-05-29T04:10:04;25.70;54.70
19908;DHT22;10116;53.112;7.356;2023-05-29T04:12:30;25.70;54.60
19908;DHT22;10116;53.112;7.356;2023-05-29T04:14:55;25.70;54.60
19908;DHT22;10116;53.112;7.356;2023-05-29T04:17:21;25.70;55.10
19908;DHT22;10116;53.112;7.356;2023-05-29T04:19:46;25.70;53.80
19908;DHT22;10116;53.112;7.356;2023-05-29T04:22:12;25.70;54.50
19908;DHT22;10116;53.112;7.356;2023-05-29T04:24:38;25.70;53.40
19908;DHT22;10116;53.112;7.356;2023-05-29T04:27:04;25.70;53.40
19908;DHT22;10116;53.112;7.356;2023-05-29T04:29:29;25.70;53.50
19908;DHT22;10116;53.112;7.356;2023-05-29T04:31:55;25.70;67.30
19908;DHT22;10116;53.112;7.356;2023-05-29T04:34:21;25.70;53.40
19908;DHT22;10116;53.112;7.356;2023-05-29T04:36:47;25.70;53.70
19908;DHT22;10116;53.112;7.356;2023-05-29T04:39:13;25.70;53.70
19908;DHT22;10116;53.112;7.356;2023-05-29T04:41:40;25.70;53.00
19908;DHT22;10116;53.112;7.356;2023-05-29T04:44:06;25.70;53.10
19908;DHT22;10116;53.112;7.356;2023-05-29T04:46:33;25.70;53.30
19908;DHT22;10116;53.112;7.356;2023-05-29T04:49:01;25.70;53.30
19908;DHT22;10116;53.112;7.356;2023-05-29T04:51:28;25.70;54.10
19908;DHT22;10116;53.112;7.356;2023-05-29T04:53:55;25.80;53.90
19908;DHT22;10116;53.112;7.356;2023-05-29T04:56:21;25.80;53.80
19908;DHT22;10116;53.112;7.356;2023-05-29T04:58:47;25.80;53.90
19908;DHT22;10116;53.112;7.356;2023-05-29T05:01:13;25.80;54.90
19908;DHT22;10116;53.112;7.356;2023-05-29T05:03:43;25.90;55.40
19908;DHT22;10116;53.112;7.356;2023-05-29T05:06:09;25.90;56.00
19908;DHT22;10116;53.112;7.356;2023-05-29T05:08:35;26.00;56.00
19908;DHT22;10116;53.112;7.356;2023-05-29T05:11:02;26.10;56.70
19908;DHT22;10116;53.112;7.356;2023-05-29T05:13:28;26.10;56.90
19908;DHT22;10116;53.112;7.356;2023-05-29T05:15:54;26.20;57.50
19908;DHT22;10116;53.112;7.356;2023-05-29T05:18:20;26.20;57.50
19908;DHT22;10116;53.112;7.356;2023-05-29T05:20:46;26.20;58.00
19908;DHT22;10116;53.112;7.356;2023-05-29T05:23:12;26.30;58.00
19908;DHT22;10116;53.112;7.356;2023-05-29T05:25:38;26.30;58.50
19908;DHT22;10116;53.112;7.356;2023-05-29T05:28:04;26.30;58.90
19908;DHT22;10116;53.112;7.356;2023-05-29T05:30:30;26.40;57.90
19908;DHT22;10116;53.112;7.356;2023-05-29T05:32:56;26.40;58.30
19908;DHT22;10116;53.112;7.356;2023-05-29T05:35:22;26.40;58.30
19908;DHT22;10116;53.112;7.356;2023-05-29T05:37:47;26.40;58.40
19908;DHT22;10116;53.112;7.356;2023-05-29T05:40:13;26.40;58.10
19908;DHT22;10116;53.112;7.356;2023-05-29T05:42:39;26.40;73.50
19908;DHT22;10116;53.112;7.356;2023-05-29T05:45:05;26.40;58.30
19908;DHT22;10116;53.112;7.356;2023-05-29T05:47:32;26.50;57.70
19908;DHT22;10116;53.112;7.356;2023-05-29T05:49:57;26.40;57.50
19908;DHT22;10116;53.112;7.356;2023-05-29T05:52:24;26.40;57.40
19908;DHT22;10116;53.112;7.356;2023-05-29T05:54:50;26.40;56.70
19908;DHT22;10116;53.112;7.356;2023-05-29T05:57:16;26.40;56.60
19908;DHT22;10116;53.112;7.356;2023-05-29T05:59:41;26.40;56.00
19908;DHT22;10116;53.112;7.356;2023-05-29T06:02:07;26.30;56.20
19908;DHT22;10116;53.112;7.356;2023-05-29T06:04:32;26.30;55.70
19908;DHT22;10116;53.112;7.356;2023-05-29T06:06:58;26.30;55.90
19908;DHT22;10116;53.112;7.356;2023-05-29T06:09:24;26.30;55.30
19908;DHT22;10116;53.112;7.356;2023-05-29T06:11:50;26.30;55.50
19908;DHT22;10116;53.112;7.356;2023-05-29T06:14:16;26.30;55.10
19908;DHT22;10116;53.112;7.356;2023-05-29T06:16:42;26.30;55.80
19908;DHT22;10116;53.112;7.356;2023-05-29T06:19:08;26.30;55.70
19908;DHT22;10116;53.112;7.356;2023-05-29T06:21:34;26.30;56.10
19908;DHT22;10116;53.112;7.356;2023-05-29T06:23:59;26.40;56.00
19908;DHT22;10116;53.112;7.356;2023-05-29T06:26:25;26.40;56.10
19908;DHT22;10116;53.112;7.356;2023-05-29T06:28:52;26.50;56.10
19908;DHT22;10116;53.112;7.356;2023-05-29T06:31:18;26.50;56.40
19908;DHT22;10116;53.112;7.356;2023-05-29T06:33:44;26.50;71.40
19908;DHT22;10116;53.112;7.356;2023-05-29T06:36:10;26.50;55.90
19908;DHT22;10116;53.112;7.356;2023-05-29T06:38:36;26.50;55.90
19908;DHT22;10116;53.112;7.356;2023-05-29T06:41:02;26.50;55.80
19908;DHT22;10116;53.112;7.356;2023-05-29T06:43:28;26.50;55.80
19908;DHT22;10116;53.112;7.356;2023-05-29T06:45:54;26.50;54.80
19908;DHT22;10116;53.112;7.356;2023-05-29T06:48:19;26.50;55.40
19908;DHT22;10116;53.112;7.356;2023-05-29T06:50:47;26.50;55.60
19908;DHT22;10116;53.112;7.356;2023-05-29T06:53:13;26.40;54.10
19908;DHT22;10116;53.112;7.356;2023-05-29T06:55:38;26.40;54.20
19908;DHT22;10116;53.112;7.356;2023-05-29T06:58:06;26.40;54.90
19908;DHT22;10116;53.112;7.356;2023-05-29T07:00:32;26.40;53.50
19908;DHT22;10116;53.112;7.356;2023-05-29T07:02:57;26.40;53.30
19908;DHT22;10116;53.112;7.356;2023-05-29T07:05:23;26.40;53.10
19908;DHT22;10116;53.112;7.356;2023-05-29T07:07:48;26.30;53.20
19908;DHT22;10116;53.112;7.356;2023-05-29T07:10:14;26.30;52.60
19908;DHT22;10116;53.112;7.356;2023-05-29T07:12:40;26.30;52.50
19908;DHT22;10116;53.112;7.356;2023-05-29T07:15:06;26.30;52.20
19908;DHT22;10116;53.112;7.356;2023-05-29T07:17:31;26.30;51.90
19908;DHT22;10116;53.112;7.356;2023-05-29T07:19:57;26.30;51.70
19908;DHT22;10116;53.112;7.356;2023-05-29T07:22:22;26.20;51.70
19908;DHT22;10116;53.112;7.356;2023-05-29T07:24:48;26.20;51.60
19908;DHT22;10116;53.112;7.356;2023-05-29T07:27:14;26.20;51.40
19908;DHT22;10116;53.112;7.356;2023-05-29T07:29:40;26.20;51.70
19908;DHT22;10116;53.112;7.356;2023-05-29T07:32:05;26.20;50.60
19908;DHT22;10116;53.112;7.356;2023-05-29T07:34:31;26.20;50.50
19908;DHT22;10116;53.112;7.356;2023-05-29T07:37:00;26.20;50.70
19908;DHT22;10116;53.112;7.356;2023-05-29T07:39:26;26.20;50.50
19908;DHT22;10116;53.112;7.356;2023-05-29T07:41:52;26.20;50.30
19908;DHT22;10116;53.112;7.356;2023-05-29T07:44:18;26.20;50.30
19908;DHT22;10116;53.112;7.356;2023-05-29T07:46:44;26.20;50.10
19908;DHT22;10116;53.112;7.356;2023-05-29T07:49:10;26.20;50.40
19908;DHT22;10116;53.112;7.356;2023-05-29T07:51:35;26.20;50.70
19908;DHT22;10116;53.112;7.356;2023-05-29T07:54:02;26.20;64.00
19908;DHT22;10116;53.112;7.356;2023-05-29T07:56:28;26.20;50.70
19908;DHT22;10116;53.112;7.356;2023-05-29T07:58:53;26.20;51.30
19908;DHT22;10116;53.112;7.356;2023-05-29T08:01:20;26.30;50.30
19908;DHT22;10116;53.112;7.356;2023-05-29T08:03:49;26.20;50.80
19908;DHT22;10116;53.112;7.356;2023-05-29T08:06:14;26.30;50.50
19908;DHT22;10116;53.112;7.356;2023-05-29T08:08:40;26.30;51.90
19908;DHT22;10116;53.112;7.356;2023-05-29T08:11:06;26.30;50.40
19908;DHT22;10116;53.112;7.356;2023-05-29T08:13:32;26.20;50.00
19908;DHT22;10116;53.112;7.356;2023-05-29T08:15:58;26.20;50.30
19908;DHT22;10116;53.112;7.356;2023-05-29T08:18:26;26.20;50.60
19908;DHT22;10116;53.112;7.356;2023-05-29T08:20:52;26.20;49.90
19908;DHT22;10116;53.112;7.356;2023-05-29T08:23:18;26.20;49.40
19908;DHT22;10116;53.112;7.356;2023-05-29T08:25:44;26.20;49.30
19908;DHT22;10116;53.112;7.356;2023-05-29T08:28:10;26.20;49.50
19908;DHT22;10116;53.112;7.356;2023-05-29T08:30:36;26.20;49.50
19908;DHT22;10116;53.112;7.356;2023-05-29T08:33:02;26.20;49.50
19908;DHT22;10116;53.112;7.356;2023-05-29T08:35:28;26.20;49.90
19908;DHT22;10116;53.112;7.356;2023-05-29T08:37:54;26.20;49.10
19908;DHT22;10116;53.112;7.356;2023-05-29T08:40:20;26.20;49.00
19908;DHT22;10116;53.112;7.356;2023-05-29T08:42:58;26.20;48.40
19908;DHT22;10116;53.112;7.356;2023-05-29T08:45:25;26.20;48.60
19908;DHT22;10116;53.112;7.356;2023-05-29T08:47:53;26.20;48.70
19908;DHT22;10116;53.112;7.356;2023-05-29T08:50:22;26.20;48.70
19908;DHT22;10116;53.112;7.356;2023-05-29T08:52:48;26.20;49.70
19908;DHT22;10116;53.112;7.356;2023-05-29T08:55:14;26.20;49.20
19908;DHT22;10116;53.112;7.356;2023-05-29T08:57:40;26.20;48.80
19908;DHT22;10116;53.112;7.356;2023-05-29T09:00:09;26.10;48.30
19908;DHT22;10116;53.112;7.356;2023-05-29T09:02:47;26.20;48.20
19908;DHT22;10116;53.112;7.356;2023-05-29T09:05:12;26.10;48.20
19908;DHT22;10116;53.112;7.356;2023-05-29T09:07:39;26.10;48.10
19908;DHT22;10116;53.112;7.356;2023-05-29T09:10:06;26.20;47.80
19908;DHT22;10116;53.112;7.356;2023-05-29T09:12:33;26.20;47.70
19908;DHT22;10116;53.112;7.356;2023-05-29T09:14:58;26.10;47.60
19908;DHT22;10116;53.112;7.356;2023-05-29T09:17:24;26.10;47.80
19908;DHT22;10116;53.112;7.356;2023-05-29T09:19:50;26.10;47.60
19908;DHT22;10116;53.112;7.356;2023-05-29T09:22:15;26.10;47.90
19908;DHT22;10116;53.112;7.356;2023-05-29T09:24:46;26.10;47.90
19908;DHT22;10116;53.112;7.356;2023-05-29T09:27:12;26.10;47.60
19908;DHT22;10116;53.112;7.356;2023-05-29T09:29:43;26.10;47.90
19908;DHT22;10116;53.112;7.356;2023-05-29T09:32:10;26.10;48.00
19908;DHT22;10116;53.112;7.356;2023-05-29T09:34:36;26.10;47.60
19908;DHT22;10116;53.112;7.356;2023-05-29T09:37:03;26.10;47.30
19908;DHT22;10116;53.112;7.356;2023-05-29T09:39:55;26.10;47.20
19908;DHT22;10116;53.112;7.356;2023-05-29T09:42:20;26.10;47.70
19908;DHT22;10116;53.112;7.356;2023-05-29T09:44:49;26.10;48.20
19908;DHT22;10116;53.112;7.356;2023-05-29T09:47:17;26.10;47.00
19908;DHT22;10116;53.112;7.356;2023-05-29T09:49:43;26.10;46.90
19908;DHT22;10116;53.112;7.356;2023-05-29T09:52:13;26.10;46.80
19908;DHT22;10116;53.112;7.356;2023-05-29T09:54:42;26.10;46.80
19908;DHT22;10116;53.112;7.356;2023-05-29T09:57:16;26.00;46.30
19908;DHT22;10116;53.112;7.356;2023-05-29T09:59:43;26.00;47.00
19908;DHT22;10116;53.112;7.356;2023-05-29T10:02:11;26.00;45.90
19908;DHT22;10116;53.112;7.356;2023-05-29T10:04:39;26.00;45.80
19908;DHT22;10116;53.112;7.356;2023-05-29T10:07:11;26.00;45.80
19908;DHT22;10116;53.112;7.356;2023-05-29T10:09:42;26.00;46.30
19908;DHT22;10116;53.112;7.356;2023-05-29T10:12:11;26.00;46.00
19908;DHT22;10116;53.112;7.356;2023-05-29T10:14:37;26.10;47.00
19908;DHT22;10116;53.112;7.356;2023-05-29T10:17:07;26.10;48.20
19908;DHT22;10116;53.112;7.356;2023-05-29T10:19:36;26.20;47.80
19908;DHT22;10116;53.112;7.356;2023-05-29T10:22:04;26.20;47.90
19908;DHT22;10116;53.112;7.356;2023-05-29T10:24:32;26.20;47.80
19908;DHT22;10116;53.112;7.356;2023-05-29T10:26:58;26.20;48.40
19908;DHT22;10116;53.112;7.356;2023-05-29T10:29:34;26.20;48.30
19908;DHT22;10116;53.112;7.356;2023-05-29T10:32:36;26.20;48.40
19908;DHT22;10116;53.112;7.356;2023-05-29T10:35:14;26.20;48.30
19908;DHT22;10116;53.112;7.356;2023-05-29T10:37:51;26.20;48.00
19908;DHT22;10116;53.112;7.356;2023-05-29T10:40:24;26.20;47.70
19908;DHT22;10116;53.112;7.356;2023-05-29T10:42:51;26.20;47.70
19908;DHT22;10116;53.112;7.356;2023-05-29T10:50:47;26.20;47.80
19908;DHT22;10116;53.112;7.356;2023-05-29T10:53:18;26.20;47.20
19908;DHT22;10116;53.112;7.356;2023-05-29T10:55:47;26.20;47.30
19908;DHT22;10116;53.112;7.356;2023-05-29T10:58:18;26.20;47.50
19908;DHT22;10116;53.112;7.356;2023-05-29T11:00:45;26.20;47.80
19908;DHT22;10116;53.112;7.356;2023-05-29T11:03:22;26.20;47.30
19908;DHT22;10116;53.112;7.356;2023-05-29T11:06:01;26.20;47.00
19908;DHT22;10116;53.112;7.356;2023-05-29T11:08:35;26.20;58.90
19908;DHT22;10116;53.112;7.356;2023-05-29T11:11:01;26.20;47.40
19908;DHT22;10116;53.112;7.356;2023-05-29T11:13:36;26.20;46.40
19908;DHT22;10116;53.112;7.356;2023-05-29T11:18:51;26.20;47.00
19908;DHT22;10116;53.112;7.356;2023-05-29T11:24:04;26.20;46.00
19908;DHT22;10116;53.112;7.356;2023-05-29T11:26:33;26.20;58.00
19908;DHT22;10116;53.112;7.356;2023-05-29T11:29:05;26.20;46.20
19908;DHT22;10116;53.112;7.356;2023-05-29T11:31:33;26.20;45.70
19908;DHT22;10116;53.112;7.356;2023-05-29T11:34:01;26.20;45.70
19908;DHT22;10116;53.112;7.356;2023-05-29T11:36:30;26.20;45.90
19908;DHT22;10116;53.112;7.356;2023-05-29T11:38:57;26.20;45.70
19908;DHT22;10116;53.112;7.356;2023-05-29T11:41:22;26.20;45.20
19908;DHT22;10116;53.112;7.356;2023-05-29T11:44:00;26.20;44.80
19908;DHT22;10116;53.112;7.356;2023-05-29T11:46:31;26.20;45.10
19908;DHT22;10116;53.112;7.356;2023-05-29T11:48:58;26.20;44.70
19908;DHT22;10116;53.112;7.356;2023-05-29T11:51:24;26.20;44.90
19908;DHT22;10116;53.112;7.356;2023-05-29T11:53:51;26.20;45.40
19908;DHT22;10116;53.112;7.356;2023-05-29T11:56:27;26.20;44.90
19908;DHT22;10116;53.112;7.356;2023-05-29T11:58:55;26.20;44.40
19908;DHT22;10116;53.112;7.356;2023-05-29T12:01:23;26.20;45.00
19908;DHT22;10116;53.112;7.356;2023-05-29T12:03:49;26.20;44.70
19908;DHT22;10116;53.112;7.356;2023-05-29T12:06:15;26.20;44.50
19908;DHT22;10116;53.112;7.356;2023-05-29T12:08:40;26.20;44.40
19908;DHT22;10116;53.112;7.356;2023-05-29T12:11:07;26.20;44.80
19908;DHT22;10116;53.112;7.356;2023-05-29T12:13:33;26.20;44.50
19908;DHT22;10116;53.112;7.356;2023-05-29T12:16:04;26.20;44.70
19908;DHT22;10116;53.112;7.356;2023-05-29T12:18:31;26.30;44.80
19908;DHT22;10116;53.112;7.356;2023-05-29T12:21:01;26.30;45.20
19908;DHT22;10116;53.112;7.356;2023-05-29T12:23:28;26.30;44.70
19908;DHT22;10116;53.112;7.356;2023-05-29T12:25:54;26.20;44.60
19908;DHT22;10116;53.112;7.356;2023-05-29T12:28:20;26.20;44.90
19908;DHT22;10116;53.112;7.356;2023-05-29T12:30:47;26.20;44.00
19908;DHT22;10116;53.112;7.356;2023-05-29T12:33:28;26.20;43.40
19908;DHT22;10116;53.112;7.356;2023-05-29T12:35:54;26.20;43.40
19908;DHT22;10116;53.112;7.356;2023-05-29T12:38:22;26.20;43.20
19908;DHT22;10116;53.112;7.356;2023-05-29T12:40:48;26.20;43.50
19908;DHT22;10116;53.112;7.356;2023-05-29T12:43:15;26.20;42.70
19908;DHT22;10116;53.112;7.356;2023-05-29T12:45:41;26.20;43.00
19908;DHT22;10116;53.112;7.356;2023-05-29T12:48:07;26.10;43.00
19908;DHT22;10116;53.112;7.356;2023-05-29T12:50:37;26.10;42.90
19908;DHT22;10116;53.112;7.356;2023-05-29T12:53:12;26.10;42.20
19908;DHT22;10116;53.112;7.356;2023-05-29T12:55:43;26.10;41.40
19908;DHT22;10116;53.112;7.356;2023-05-29T12:58:10;26.10;41.30
19908;DHT22;10116;53.112;7.356;2023-05-29T13:00:41;26.10;41.70
19908;DHT22;10116;53.112;7.356;2023-05-29T13:03:07;26.00;42.00
19908;DHT22;10116;53.112;7.356;2023-05-29T13:05:34;26.00;40.50
19908;DHT22;10116;53.112;7.356;2023-05-29T13:08:00;26.00;40.80
19908;DHT22;10116;53.112;7.356;2023-05-29T13:10:26;26.00;46.90
19908;DHT22;10116;53.112;7.356;2023-05-29T13:12:54;26.00;40.70
19908;DHT22;10116;53.112;7.356;2023-05-29T13:15:23;26.10;41.10
19908;DHT22;10116;53.112;7.356;2023-05-29T13:17:49;26.10;41.30
19908;DHT22;10116;53.112;7.356;2023-05-29T13:20:15;26.20;41.70
19908;DHT22;10116;53.112;7.356;2023-05-29T13:22:43;26.20;41.50
19908;DHT22;10116;53.112;7.356;2023-05-29T13:25:11;26.20;42.10
19908;DHT22;10116;53.112;7.356;2023-05-29T13:27:39;26.30;43.00
19908;DHT22;10116;53.112;7.356;2023-05-29T13:30:06;26.30;42.50
19908;DHT22;10116;53.112;7.356;2023-05-29T13:32:32;26.40;42.50
19908;DHT22;10116;53.112;7.356;2023-05-29T13:34:57;26.40;43.60
19908;DHT22;10116;53.112;7.356;2023-05-29T13:37:24;26.40;42.80
19908;DHT22;10116;53.112;7.356;2023-05-29T13:39:50;26.40;42.90
19908;DHT22;10116;53.112;7.356;2023-05-29T13:42:16;26.40;42.80
19908;DHT22;10116;53.112;7.356;2023-05-29T13:44:41;26.40;42.80
19908;DHT22;10116;53.112;7.356;2023-05-29T13:47:07;26.40;42.70
19908;DHT22;10116;53.112;7.356;2023-05-29T13:49:36;26.50;42.10
19908;DHT22;10116;53.112;7.356;2023-05-29T13:52:03;26.50;42.00
19908;DHT22;10116;53.112;7.356;2023-05-29T13:54:28;26.50;42.40
19908;DHT22;10116;53.112;7.356;2023-05-29T13:56:56;26.40;42.40
19908;DHT22;10116;53.112;7.356;2023-05-29T13:59:24;26.40;40.80
19908;DHT22;10116;53.112;7.356;2023-05-29T14:01:50;26.40;41.00
19908;DHT22;10116;53.112;7.356;2023-05-29T14:04:16;26.40;40.40
19908;DHT22;10116;53.112;7.356;2023-05-29T14:06:41;26.30;39.60
19908;DHT22;10116;53.112;7.356;2023-05-29T14:09:07;26.30;39.40
19908;DHT22;10116;53.112;7.356;2023-05-29T14:11:36;26.30;38.80
19908;DHT22;10116;53.112;7.356;2023-05-29T14:14:03;26.30;39.10
19908;DHT22;10116;53.112;7.356;2023-05-29T14:16:29;26.30;38.20
19908;DHT22;10116;53.112;7.356;2023-05-29T14:18:54;26.30;37.90
19908;DHT22;10116;53.112;7.356;2023-05-29T14:21:20;26.30;37.50
19908;DHT22;10116;53.112;7.356;2023-05-29T14:23:46;26.30;37.70
19908;DHT22;10116;53.112;7.356;2023-05-29T14:26:12;26.30;37.60
19908;DHT22;10116;53.112;7.356;2023-05-29T14:28:37;26.30;37.10
19908;DHT22;10116;53.112;7.356;2023-05-29T14:31:04;26.30;37.30
19908;DHT22;10116;53.112;7.356;2023-05-29T14:33:31;26.30;37.30
19908;DHT22;10116;53.112;7.356;2023-05-29T14:35:56;26.30;36.40
19908;DHT22;10116;53.112;7.356;2023-05-29T14:38:22;26.30;36.70
19908;DHT22;10116;53.112;7.356;2023-05-29T14:40:48;26.30;35.80
19908;DHT22;10116;53.112;7.356;2023-05-29T14:43:14;26.30;36.80
19908;DHT22;10116;53.112;7.356;2023-05-29T14:45:40;26.40;37.20
19908;DHT22;10116;53.112;7.356;2023-05-29T14:48:06;26.40;37.00
19908;DHT22;10116;53.112;7.356;2023-05-29T14:50:32;26.40;36.80
19908;DHT22;10116;53.112;7.356;2023-05-29T14:52:58;26.50;37.90
19908;DHT22;10116;53.112;7.356;2023-05-29T14:55:23;26.50;37.90
19908;DHT22;10116;53.112;7.356;2023-05-29T14:57:49;26.50;37.30
19908;DHT22;10116;53.112;7.356;2023-05-29T15:00:15;26.50;37.20
19908;DHT22;10116;53.112;7.356;2023-05-29T15:02:40;26.50;37.50
19908;DHT22;10116;53.112;7.356;2023-05-29T15:05:06;26.50;37.00
19908;DHT22;10116;53.112;7.356;2023-05-29T15:07:33;26.50;37.00
19908;DHT22;10116;53.112;7.356;2023-05-29T15:10:02;26.50;35.80
19908;DHT22;10116;53.112;7.356;2023-05-29T15:12:29;26.40;35.30
19908;DHT22;10116;53.112;7.356;2023-05-29T15:14:55;26.40;34.90
19908;DHT22;10116;53.112;7.356;2023-05-29T15:17:20;26.40;33.90
19908;DHT22;10116;53.112;7.356;2023-05-29T15:19:46;26.40;36.30
19908;DHT22;10116;53.112;7.356;2023-05-29T15:22:12;26.40;34.50
19908;DHT22;10116;53.112;7.356;2023-05-29T15:24:38;26.40;34.10
19908;DHT22;10116;53.112;7.356;2023-05-29T15:27:03;26.40;33.60
19908;DHT22;10116;53.112;7.356;2023-05-29T15:29:33;26.40;33.50
19908;DHT22;10116;53.112;7.356;2023-05-29T15:32:02;26.40;34.40
19908;DHT22;10116;53.112;7.356;2023-05-29T15:34:28;26.30;33.30
19908;DHT22;10116;53.112;7.356;2023-05-29T15:36:54;26.30;33.50
19908;DHT22;10116;53.112;7.356;2023-05-29T15:39:22;26.30;31.90
19908;DHT22;10116;53.112;7.356;2023-05-29T15:41:47;26.20;31.00
19908;DHT22;10116;53.112;7.356;2023-05-29T15:44:13;26.20;30.20
19908;DHT22;10116;53.112;7.356;2023-05-29T15:46:39;26.20;30.00
19908;DHT22;10116;53.112;7.356;2023-05-29T15:49:04;26.10;30.20
19908;DHT22;10116;53.112;7.356;2023-05-29T15:51:30;26.10;30.00
19908;DHT22;10116;53.112;7.356;2023-05-29T15:53:56;26.10;29.60